Time;durP1;ratioP1;P1;durP2;ratioP2;P2;SDS_P1;SDS_P2;PMS_P1;PMS_P2;Temp;Humidity;BMP_temperature;BMP_pressure;BME280_temperature;BME280_humidity;BME280_pressure;Samples;Min_cycle;Max_cycle;Signal;HPM_P1;HPM_P2
2022/03/17 00:00:21;;;;;;;19.17;16.33;;;;;;;;;;5002970;28;20195;-68
2022/03/17 00:02:46;;;;;;;22.07;17.37;;;;;;;;;;5005150;28;20572;-68
2022/03/17 00:05:12;;;;;;;19.67;17.17;;;;;;;;;;5002539;28;20272;-69
2022/03/17 00:07:38;;;;;;;22.90;18.23;;;;;;;;;;5000492;28;20204;-68
2022/03/17 00:10:05;;;;;;;20.97;17.60;;;;;;;;;;5003394;28;20177;-70
2022/03/17 00:12:30;;;;;;;22.60;18.13;;;;;;;;;;5003317;28;20420;-69
2022/03/17 00:14:56;;;;;;;21.00;17.53;;;;;;;;;;5001444;28;20456;-68
2022/03/17 00:17:21;;;;;;;23.37;18.47;;;;;;;;;;5001606;28;20216;-68
2022/03/17 00:19:46;;;;;;;21.07;17.40;;;;;;;;;;5001629;28;20184;-69
2022/03/17 00:22:15;;;;;;;21.43;18.40;;;;;;;;;;5002989;28;20184;-68
2022/03/17 00:24:41;;;;;;;23.73;18.30;;;;;;;;;;5000591;28;20177;-68
2022/03/17 00:27:08;;;;;;;24.30;19.23;;;;;;;;;;4998779;28;20463;-69
2022/03/17 00:29:33;;;;;;;23.00;19.07;;;;;;;;;;5001823;28;20228;-69
2022/03/17 00:31:59;;;;;;;28.33;19.37;;;;;;;;;;5017856;28;20428;-69
2022/03/17 00:34:24;;;;;;;22.60;17.70;;;;;;;;;;5004874;28;20200;-68
2022/03/17 00:36:50;;;;;;;23.80;18.70;;;;;;;;;;4999355;28;20192;-68
2022/03/17 00:39:15;;;;;;;23.07;18.27;;;;;;;;;;5000770;28;20185;-68
2022/03/17 00:41:41;;;;;;;22.27;18.00;;;;;;;;;;4998116;28;20443;-69
2022/03/17 00:44:07;;;;;;;24.00;18.67;;;;;;;;;;4997603;28;20581;-68
2022/03/17 00:46:32;;;;;;;22.80;18.73;;;;;;;;;;5013648;28;20583;-68
2022/03/17 00:48:57;;;;;;;24.07;18.07;;;;;;;;;;5014682;28;20269;-68
2022/03/17 00:51:23;;;;;;;22.47;19.43;;;;;;;;;;5000664;28;20176;-69
2022/03/17 00:53:48;;;;;;;23.97;19.57;;;;;;;;;;4997876;28;20188;-68
2022/03/17 00:56:13;;;;;;;21.83;19.40;;;;;;;;;;5000754;28;20247;-68
2022/03/17 00:58:39;;;;;;;26.90;19.70;;;;;;;;;;5000140;28;20617;-68
2022/03/17 01:01:04;;;;;;;26.73;18.93;;;;;;;;;;4998108;28;20181;-68
2022/03/17 01:03:30;;;;;;;23.83;19.77;;;;;;;;;;4996840;28;20673;-69
2022/03/17 01:05:55;;;;;;;25.30;20.00;;;;;;;;;;4998327;28;20705;-68
2022/03/17 01:08:20;;;;;;;24.70;19.73;;;;;;;;;;4995703;28;21211;-68
2022/03/17 01:10:46;;;;;;;28.60;19.27;;;;;;;;;;5000216;28;20259;-68
2022/03/17 01:13:11;;;;;;;27.53;20.77;;;;;;;;;;4998590;28;20212;-68
2022/03/17 01:15:36;;;;;;;25.20;20.17;;;;;;;;;;5020726;22;20237;-74
2022/03/17 01:18:02;;;;;;;24.77;19.70;;;;;;;;;;5012856;28;20215;-74
2022/03/17 01:20:29;;;;;;;23.50;19.70;;;;;;;;;;5017714;28;21097;-74
2022/03/17 01:22:54;;;;;;;27.00;19.30;;;;;;;;;;5016456;28;20196;-74
2022/03/17 01:25:19;;;;;;;25.20;20.87;;;;;;;;;;5013674;28;20529;-74
2022/03/17 01:27:45;;;;;;;26.73;18.87;;;;;;;;;;5017923;28;20181;-74
2022/03/17 01:30:10;;;;;;;27.07;20.23;;;;;;;;;;5013639;28;20226;-74
2022/03/17 01:32:38;;;;;;;25.03;20.70;;;;;;;;;;5018219;28;20184;-74
2022/03/17 01:35:05;;;;;;;22.63;18.60;;;;;;;;;;5015490;28;20201;-74
2022/03/17 01:37:30;;;;;;;24.47;19.37;;;;;;;;;;5016576;28;21151;-74
2022/03/17 01:39:56;;;;;;;25.03;19.47;;;;;;;;;;5015162;28;21140;-74
2022/03/17 01:42:21;;;;;;;26.87;19.63;;;;;;;;;;5030345;28;20195;-74
2022/03/17 01:44:47;;;;;;;25.83;20.60;;;;;;;;;;5015128;28;20212;-74
2022/03/17 01:47:27;;;;;;;23.17;20.17;;;;;;;;;;5012204;28;20188;-75
2022/03/17 01:50:01;;;;;;;23.37;20.00;;;;;;;;;;5015503;28;20262;-74
2022/03/17 01:52:26;;;;;;;24.20;19.63;;;;;;;;;;5013116;28;20864;-74
2022/03/17 01:54:53;;;;;;;24.37;19.47;;;;;;;;;;5015048;28;20438;-74
2022/03/17 01:57:18;;;;;;;23.60;20.20;;;;;;;;;;5011787;28;20177;-74
2022/03/17 01:59:44;;;;;;;24.60;20.00;;;;;;;;;;5018812;28;20499;-74
2022/03/17 02:02:10;;;;;;;23.70;20.30;;;;;;;;;;5016513;28;20224;-75
2022/03/17 02:04:36;;;;;;;23.80;18.50;;;;;;;;;;5019009;28;20192;-74
2022/03/17 02:07:05;;;;;;;24.77;18.63;;;;;;;;;;5013444;28;20457;-75
2022/03/17 02:09:34;;;;;;;24.50;19.43;;;;;;;;;;5016363;28;20184;-75
2022/03/17 02:14:50;;;;;;;23.33;19.43;;;;;;;;;;5018090;28;20466;-75
2022/03/17 02:17:15;;;;;;;23.57;19.07;;;;;;;;;;5022052;28;21070;-74
2022/03/17 02:19:41;;;;;;;22.60;19.27;;;;;;;;;;5018329;28;20462;-74
2022/03/17 02:22:10;;;;;;;24.70;18.80;;;;;;;;;;5018415;28;20180;-74
2022/03/17 02:27:20;;;;;;;24.70;18.97;;;;;;;;;;5013663;28;20599;-74
2022/03/17 02:29:46;;;;;;;23.47;18.33;;;;;;;;;;5018473;28;20442;-74
2022/03/17 02:32:11;;;;;;;27.37;19.00;;;;;;;;;;5015749;28;20431;-74
2022/03/17 02:34:38;;;;;;;22.10;19.13;;;;;;;;;;5012832;28;20190;-74
2022/03/17 02:37:04;;;;;;;24.73;18.30;;;;;;;;;;5015592;28;20246;-74
2022/03/17 02:39:29;;;;;;;21.97;17.57;;;;;;;;;;5016179;28;20473;-74
2022/03/17 02:41:55;;;;;;;24.53;18.47;;;;;;;;;;5012873;28;20192;-74
2022/03/17 02:44:21;;;;;;;23.40;18.60;;;;;;;;;;5015343;28;20192;-74
2022/03/17 02:46:46;;;;;;;21.73;17.40;;;;;;;;;;5016403;28;20458;-74
2022/03/17 02:49:15;;;;;;;27.57;18.90;;;;;;;;;;5013943;28;20193;-74
2022/03/17 02:51:40;;;;;;;21.70;17.73;;;;;;;;;;5015070;28;20748;-74
2022/03/17 02:54:06;;;;;;;22.90;17.90;;;;;;;;;;5013752;28;20438;-74
2022/03/17 02:56:32;;;;;;;23.63;18.03;;;;;;;;;;5014443;28;20204;-74
2022/03/17 02:58:57;;;;;;;18.43;16.43;;;;;;;;;;5013384;28;20223;-74
2022/03/17 03:01:23;;;;;;;19.63;16.80;;;;;;;;;;5015825;28;20462;-74
2022/03/17 03:03:48;;;;;;;26.83;18.50;;;;;;;;;;5013727;28;20212;-74
2022/03/17 03:06:14;;;;;;;26.13;18.37;;;;;;;;;;5017129;28;20341;-74
2022/03/17 03:08:39;;;;;;;19.87;17.50;;;;;;;;;;5017069;28;20184;-73
2022/03/17 03:11:04;;;;;;;22.00;17.57;;;;;;;;;;5015903;28;20442;-73
2022/03/17 03:13:30;;;;;;;24.57;18.50;;;;;;;;;;5019352;28;20180;-74
2022/03/17 03:15:55;;;;;;;20.80;17.50;;;;;;;;;;5020545;28;20231;-74
2022/03/17 03:18:21;;;;;;;24.83;17.80;;;;;;;;;;5033761;28;20255;-74
2022/03/17 03:20:47;;;;;;;22.20;17.80;;;;;;;;;;5018903;28;20200;-74
2022/03/17 03:23:12;;;;;;;23.90;17.60;;;;;;;;;;5016517;28;20460;-74
2022/03/17 03:25:38;;;;;;;20.67;17.30;;;;;;;;;;5018707;28;20220;-74
2022/03/17 03:28:04;;;;;;;25.47;19.10;;;;;;;;;;5014957;28;20180;-74
2022/03/17 03:30:29;;;;;;;22.53;18.70;;;;;;;;;;5018438;28;20264;-74
2022/03/17 03:32:55;;;;;;;23.93;18.80;;;;;;;;;;5020347;28;20530;-74
2022/03/17 03:38:04;;;;;;;21.70;17.73;;;;;;;;;;5017153;28;20210;-73
2022/03/17 03:40:29;;;;;;;24.03;16.20;;;;;;;;;;5019879;28;20962;-74
2022/03/17 03:42:55;;;;;;;22.37;15.53;;;;;;;;;;5019332;28;20203;-74
2022/03/17 03:45:20;;;;;;;19.17;16.50;;;;;;;;;;5018618;28;20210;-73
2022/03/17 03:47:45;;;;;;;21.10;17.83;;;;;;;;;;5018422;28;20215;-73
2022/03/17 03:50:11;;;;;;;21.70;16.60;;;;;;;;;;5019380;28;20275;-73
2022/03/17 03:52:36;;;;;;;21.50;18.03;;;;;;;;;;5017584;28;20187;-73
2022/03/17 03:55:02;;;;;;;20.60;16.43;;;;;;;;;;5018655;28;20201;-74
2022/03/17 03:57:27;;;;;;;21.53;17.47;;;;;;;;;;5017561;28;20284;-73
2022/03/17 03:59:52;;;;;;;21.30;17.87;;;;;;;;;;5018418;28;20195;-73
2022/03/17 04:02:18;;;;;;;26.20;18.27;;;;;;;;;;5014404;28;20180;-73
2022/03/17 04:04:44;;;;;;;28.10;18.27;;;;;;;;;;5018299;28;20255;-73
2022/03/17 04:07:10;;;;;;;25.30;18.37;;;;;;;;;;5018628;28;20462;-73
2022/03/17 04:09:40;;;;;;;22.53;18.10;;;;;;;;;;5019170;28;20181;-73
2022/03/17 04:12:06;;;;;;;21.60;17.53;;;;;;;;;;5015142;28;20502;-73
2022/03/17 04:14:32;;;;;;;21.60;16.97;;;;;;;;;;5019812;28;20960;-74
2022/03/17 04:16:57;;;;;;;20.37;17.07;;;;;;;;;;5018542;28;20532;-73
2022/03/17 04:19:23;;;;;;;28.30;19.40;;;;;;;;;;5019960;28;20185;-74
2022/03/17 04:21:49;;;;;;;22.23;18.13;;;;;;;;;;5017255;28;20177;-73
2022/03/17 04:24:15;;;;;;;23.30;18.50;;;;;;;;;;5015720;28;20192;-73
2022/03/17 04:26:41;;;;;;;22.80;18.50;;;;;;;;;;5018517;28;20994;-73
2022/03/17 04:29:06;;;;;;;24.37;19.07;;;;;;;;;;5015541;28;20173;-73
2022/03/17 04:31:33;;;;;;;21.30;17.00;;;;;;;;;;5016916;28;20180;-73
2022/03/17 04:33:58;;;;;;;22.87;18.43;;;;;;;;;;5018013;28;20208;-73
2022/03/17 04:36:25;;;;;;;20.93;16.70;;;;;;;;;;5014088;28;20923;-73
2022/03/17 04:38:50;;;;;;;23.73;18.57;;;;;;;;;;5016136;28;20193;-73
2022/03/17 04:41:17;;;;;;;22.40;16.83;;;;;;;;;;5016262;28;20570;-73
2022/03/17 04:43:42;;;;;;;24.63;18.70;;;;;;;;;;5017186;28;20209;-73
2022/03/17 04:46:08;;;;;;;21.80;17.93;;;;;;;;;;5016372;28;20447;-73
2022/03/17 04:48:33;;;;;;;21.83;17.33;;;;;;;;;;5016632;28;20630;-73
2022/03/17 04:50:59;;;;;;;23.10;18.23;;;;;;;;;;5018925;28;20185;-73
2022/03/17 04:53:27;;;;;;;23.10;17.80;;;;;;;;;;5011925;28;20444;-73
2022/03/17 04:55:57;;;;;;;22.70;17.80;;;;;;;;;;5018158;28;20212;-73
2022/03/17 04:58:22;;;;;;;26.90;19.40;;;;;;;;;;5015772;28;20835;-73
2022/03/17 05:00:48;;;;;;;24.20;18.10;;;;;;;;;;5015888;28;20496;-73
2022/03/17 05:03:14;;;;;;;23.50;18.73;;;;;;;;;;5017941;28;20197;-73
2022/03/17 05:05:39;;;;;;;25.53;18.60;;;;;;;;;;5016522;28;20291;-73
2022/03/17 05:08:06;;;;;;;21.13;17.47;;;;;;;;;;5016777;28;20564;-73
2022/03/17 05:10:35;;;;;;;22.37;18.80;;;;;;;;;;5019031;28;20184;-73
2022/03/17 05:13:01;;;;;;;23.97;18.80;;;;;;;;;;5017283;28;20443;-73
2022/03/17 05:15:26;;;;;;;22.93;18.83;;;;;;;;;;5017792;28;20469;-73
2022/03/17 05:17:51;;;;;;;23.60;18.50;;;;;;;;;;5020588;28;20189;-73
2022/03/17 05:20:17;;;;;;;26.50;18.50;;;;;;;;;;5019550;28;20188;-71
2022/03/17 05:22:42;;;;;;;19.40;16.73;;;;;;;;;;5017777;28;20207;-72
2022/03/17 05:25:09;;;;;;;23.03;18.73;;;;;;;;;;5014400;28;20200;-73
2022/03/17 05:27:41;;;;;;;26.30;19.17;;;;;;;;;;5015055;28;20263;-73
2022/03/17 05:30:06;;;;;;;23.80;20.53;;;;;;;;;;5010291;28;20436;-72
2022/03/17 05:32:32;;;;;;;29.37;21.83;;;;;;;;;;5005710;28;20492;-72
2022/03/17 05:34:57;;;;;;;30.20;24.50;;;;;;;;;;5008970;28;20636;-71
2022/03/17 05:37:23;;;;;;;32.90;24.40;;;;;;;;;;5004019;28;20204;-71
2022/03/17 05:39:49;;;;;;;35.37;24.90;;;;;;;;;;5011841;28;20255;-71
2022/03/17 05:42:15;;;;;;;30.13;24.00;;;;;;;;;;5006427;28;20474;-71
2022/03/17 05:44:40;;;;;;;32.13;23.80;;;;;;;;;;5006672;28;20526;-71
2022/03/17 05:47:06;;;;;;;35.03;25.87;;;;;;;;;;5010150;28;20208;-71
2022/03/17 05:49:31;;;;;;;35.67;27.83;;;;;;;;;;5010092;28;20180;-71
2022/03/17 05:51:56;;;;;;;36.50;27.10;;;;;;;;;;5009661;28;20190;-71
2022/03/17 05:54:22;;;;;;;38.87;30.33;;;;;;;;;;5009987;28;20250;-71
2022/03/17 05:56:47;;;;;;;39.50;30.17;;;;;;;;;;5008096;28;20892;-71
2022/03/17 05:59:12;;;;;;;41.47;30.10;;;;;;;;;;5013861;28;20843;-71
2022/03/17 06:01:38;;;;;;;49.50;31.20;;;;;;;;;;5011423;28;20184;-72
2022/03/17 06:04:03;;;;;;;46.17;32.17;;;;;;;;;;5013455;28;20213;-71
2022/03/17 06:06:29;;;;;;;48.93;30.17;;;;;;;;;;5010223;28;20215;-71
2022/03/17 06:08:54;;;;;;;38.17;30.20;;;;;;;;;;5012410;28;20188;-72
2022/03/17 06:11:19;;;;;;;44.43;31.70;;;;;;;;;;5003677;28;20180;-72
2022/03/17 06:13:44;;;;;;;41.70;32.70;;;;;;;;;;5006698;28;21646;-72
2022/03/17 06:16:10;;;;;;;43.17;33.20;;;;;;;;;;5002005;28;20247;-72
2022/03/17 06:18:35;;;;;;;42.43;32.40;;;;;;;;;;4995053;28;20665;-72
2022/03/17 06:21:01;;;;;;;45.73;33.30;;;;;;;;;;5003807;28;20188;-71
2022/03/17 06:23:26;;;;;;;41.87;33.43;;;;;;;;;;5008295;28;20296;-71
2022/03/17 06:25:52;;;;;;;48.50;37.00;;;;;;;;;;5001539;28;20973;-72
2022/03/17 06:28:18;;;;;;;39.40;31.37;;;;;;;;;;5005618;28;20180;-71
2022/03/17 06:30:44;;;;;;;27.23;20.40;;;;;;;;;;5009264;28;20435;-71
2022/03/17 06:33:09;;;;;;;11.17;9.90;;;;;;;;;;5011487;28;20196;-71
2022/03/17 06:38:10;;;;;;;9.50;6.67;;;;;;;;;;3338265;26;20829;-70
2022/03/17 06:40:36;;;;;;;5.93;5.33;;;;;;;;;;5006463;28;20437;-70
2022/03/17 06:43:04;;;;;;;6.63;5.67;;;;;;;;;;5014288;28;20243;-71
2022/03/17 06:45:29;;;;;;;7.40;6.40;;;;;;;;;;5015139;28;20467;-72
2022/03/17 06:47:55;;;;;;;9.73;6.57;;;;;;;;;;5030344;28;22109;-71
2022/03/17 06:50:21;;;;;;;12.27;8.80;;;;;;;;;;5015810;28;20188;-72
2022/03/17 06:52:47;;;;;;;16.23;9.70;;;;;;;;;;5017917;28;20176;-72
2022/03/17 06:55:12;;;;;;;15.20;10.47;;;;;;;;;;5016432;28;20454;-72
2022/03/17 06:57:37;;;;;;;15.00;9.90;;;;;;;;;;5009002;28;20181;-72
2022/03/17 07:00:08;;;;;;;17.23;11.30;;;;;;;;;;5019165;28;20454;-72
2022/03/17 07:02:33;;;;;;;18.73;10.63;;;;;;;;;;5017714;28;20197;-72
2022/03/17 07:04:58;;;;;;;22.80;10.37;;;;;;;;;;5016523;28;20996;-72
2022/03/17 07:07:23;;;;;;;12.20;8.30;;;;;;;;;;5015766;28;20946;-72
2022/03/17 07:09:49;;;;;;;14.93;7.70;;;;;;;;;;5015212;28;20840;-72
2022/03/17 07:12:14;;;;;;;14.83;6.70;;;;;;;;;;5007375;28;20176;-72
2022/03/17 07:14:39;;;;;;;13.30;6.30;;;;;;;;;;5013471;28;20184;-72
2022/03/17 07:17:05;;;;;;;17.17;6.63;;;;;;;;;;5014866;28;20184;-72
2022/03/17 07:19:31;;;;;;;12.13;5.90;;;;;;;;;;5011324;28;20212;-72
2022/03/17 07:21:56;;;;;;;17.50;5.90;;;;;;;;;;5018072;28;20215;-72
2022/03/17 07:24:21;;;;;;;14.90;5.50;;;;;;;;;;5011681;28;20212;-72
2022/03/17 07:26:46;;;;;;;12.37;5.77;;;;;;;;;;5012111;28;20207;-72
2022/03/17 07:29:12;;;;;;;18.27;5.10;;;;;;;;;;5028404;22;20240;-72
2022/03/17 07:31:37;;;;;;;12.90;4.63;;;;;;;;;;5004735;28;20180;-71
2022/03/17 07:34:03;;;;;;;10.33;4.50;;;;;;;;;;5011730;28;20705;-73
2022/03/17 07:36:28;;;;;;;5.50;3.03;;;;;;;;;;5002590;28;21176;-72
2022/03/17 07:38:55;;;;;;;8.57;3.00;;;;;;;;;;5012330;28;20201;-72
2022/03/17 07:41:20;;;;;;;8.17;3.10;;;;;;;;;;5002060;28;20188;-72
2022/03/17 07:43:46;;;;;;;11.37;2.50;;;;;;;;;;5002440;28;20467;-72
2022/03/17 07:46:12;;;;;;;9.83;2.40;;;;;;;;;;5002919;28;20197;-72
2022/03/17 07:48:37;;;;;;;8.33;2.33;;;;;;;;;;4999087;28;20812;-72
2022/03/17 07:51:03;;;;;;;14.07;3.20;;;;;;;;;;4991752;28;20182;-72
2022/03/17 07:53:28;;;;;;;9.67;2.80;;;;;;;;;;5000298;28;21379;-71
2022/03/17 07:55:55;;;;;;;7.37;2.30;;;;;;;;;;4998887;28;20871;-71
2022/03/17 07:58:24;;;;;;;8.43;2.33;;;;;;;;;;5000549;28;20187;-72
2022/03/17 08:00:51;;;;;;;7.63;2.30;;;;;;;;;;5011553;28;20511;-71
2022/03/17 08:03:16;;;;;;;10.57;2.13;;;;;;;;;;4990686;28;20458;-71
2022/03/17 08:05:41;;;;;;;7.50;2.40;;;;;;;;;;4998442;28;20432;-71
2022/03/17 08:08:07;;;;;;;12.83;2.27;;;;;;;;;;4994686;28;20288;-71
2022/03/17 08:10:32;;;;;;;6.67;1.90;;;;;;;;;;4997798;28;20228;-71
2022/03/17 08:12:58;;;;;;;8.80;1.73;;;;;;;;;;4998272;28;20181;-72
2022/03/17 08:15:24;;;;;;;9.13;2.20;;;;;;;;;;5000673;28;20625;-72
2022/03/17 08:17:49;;;;;;;5.60;1.80;;;;;;;;;;4999191;28;20443;-72
2022/03/17 08:20:14;;;;;;;9.37;2.23;;;;;;;;;;4998306;28;20205;-72
2022/03/17 08:22:42;;;;;;;7.93;2.10;;;;;;;;;;5001443;28;20195;-72
2022/03/17 08:25:08;;;;;;;16.80;2.90;;;;;;;;;;4999386;28;20180;-71
2022/03/17 08:27:36;;;;;;;10.67;1.77;;;;;;;;;;4999327;28;20447;-72
2022/03/17 08:30:02;;;;;;;7.80;1.80;;;;;;;;;;4994096;28;20224;-71
2022/03/17 08:32:27;;;;;;;11.53;2.30;;;;;;;;;;4995772;28;20448;-71
2022/03/17 08:34:52;;;;;;;9.77;1.40;;;;;;;;;;4997450;28;20436;-71
2022/03/17 08:37:18;;;;;;;12.30;2.00;;;;;;;;;;4990641;28;20193;-71
2022/03/17 08:39:43;;;;;;;7.90;2.20;;;;;;;;;;5006964;28;20311;-71
2022/03/17 08:42:08;;;;;;;7.67;1.93;;;;;;;;;;4994601;28;20181;-71
2022/03/17 08:44:33;;;;;;;8.70;3.07;;;;;;;;;;4997597;28;20223;-71
2022/03/17 08:49:43;;;;;;;12.83;2.20;;;;;;;;;;4992057;28;20262;-72
2022/03/17 08:52:09;;;;;;;9.77;2.70;;;;;;;;;;4996013;28;20443;-72
2022/03/17 08:54:35;;;;;;;13.77;2.73;;;;;;;;;;4992287;28;20192;-72
2022/03/17 08:57:01;;;;;;;16.40;1.93;;;;;;;;;;4990818;28;20444;-73
2022/03/17 08:59:30;;;;;;;9.80;2.70;;;;;;;;;;4995688;28;20325;-72
2022/03/17 09:01:56;;;;;;;14.27;2.47;;;;;;;;;;4993405;28;20680;-71
2022/03/17 09:04:21;;;;;;;15.70;3.33;;;;;;;;;;4993047;28;21158;-71
2022/03/17 09:06:47;;;;;;;13.87;3.20;;;;;;;;;;4991717;28;20820;-73
2022/03/17 09:09:12;;;;;;;10.93;3.10;;;;;;;;;;4994049;28;20274;-73
2022/03/17 09:11:38;;;;;;;14.27;2.43;;;;;;;;;;4995727;28;20926;-73
2022/03/17 09:14:04;;;;;;;16.90;3.43;;;;;;;;;;5001687;28;20195;-71
2022/03/17 09:16:29;;;;;;;18.60;2.60;;;;;;;;;;4996608;28;20189;-71
2022/03/17 09:18:55;;;;;;;24.00;4.63;;;;;;;;;;4997458;28;21150;-71
2022/03/17 09:21:21;;;;;;;22.33;3.50;;;;;;;;;;4993162;28;20400;-71
2022/03/17 09:23:46;;;;;;;20.30;3.40;;;;;;;;;;4987680;28;20511;-71
2022/03/17 09:26:11;;;;;;;19.10;3.70;;;;;;;;;;4993365;28;20236;-71
2022/03/17 09:28:37;;;;;;;25.83;4.23;;;;;;;;;;4987537;28;20181;-71
2022/03/17 09:31:02;;;;;;;13.57;3.60;;;;;;;;;;4997206;28;20185;-71
2022/03/17 09:33:27;;;;;;;19.60;3.17;;;;;;;;;;4989392;28;20189;-69
2022/03/17 09:35:56;;;;;;;13.43;2.67;;;;;;;;;;4997555;28;20200;-70
2022/03/17 09:38:21;;;;;;;11.07;2.73;;;;;;;;;;4989370;28;20299;-71
2022/03/17 09:40:47;;;;;;;15.53;2.80;;;;;;;;;;4994908;28;21296;-71
2022/03/17 09:43:18;;;;;;;12.90;2.17;;;;;;;;;;4988865;28;20210;-71
2022/03/17 09:45:45;;;;;;;19.10;3.13;;;;;;;;;;4992251;28;20192;-71
2022/03/17 09:48:11;;;;;;;10.30;2.80;;;;;;;;;;4993638;28;20435;-71
2022/03/17 09:50:36;;;;;;;11.80;2.90;;;;;;;;;;4991439;28;20533;-71
2022/03/17 09:53:02;;;;;;;10.53;3.07;;;;;;;;;;4994554;28;20466;-71
2022/03/17 09:55:27;;;;;;;12.43;2.30;;;;;;;;;;4992787;28;20180;-71
2022/03/17 09:57:54;;;;;;;10.07;2.73;;;;;;;;;;4996548;28;20315;-71
2022/03/17 10:00:19;;;;;;;17.47;2.83;;;;;;;;;;4995336;28;20451;-71
2022/03/17 10:02:44;;;;;;;11.97;3.00;;;;;;;;;;4996978;28;20193;-71
2022/03/17 10:05:11;;;;;;;13.23;3.03;;;;;;;;;;5003463;28;20660;-71
2022/03/17 10:07:37;;;;;;;19.10;2.80;;;;;;;;;;5004736;28;20185;-72
2022/03/17 10:10:02;;;;;;;10.70;2.10;;;;;;;;;;5001708;28;20470;-71
2022/03/17 10:12:30;;;;;;;13.10;2.90;;;;;;;;;;5000236;28;20185;-71
2022/03/17 10:14:56;;;;;;;9.80;2.10;;;;;;;;;;5002128;28;20184;-71
2022/03/17 10:17:38;;;;;;;10.40;2.50;;;;;;;;;;5001625;28;20512;-72
2022/03/17 10:20:22;;;;;;;10.60;2.27;;;;;;;;;;4995667;28;20459;-72
2022/03/17 10:22:49;;;;;;;10.00;2.17;;;;;;;;;;4997503;28;20543;-71
2022/03/17 10:25:16;;;;;;;11.40;2.20;;;;;;;;;;4996391;28;20514;-71
2022/03/17 10:27:45;;;;;;;16.00;2.93;;;;;;;;;;5000212;28;20927;-72
2022/03/17 10:30:10;;;;;;;18.37;3.13;;;;;;;;;;4996122;28;20470;-72
2022/03/17 10:32:36;;;;;;;11.10;2.67;;;;;;;;;;4998654;28;20508;-72
2022/03/17 10:35:02;;;;;;;15.37;2.60;;;;;;;;;;4996874;28;20188;-71
2022/03/17 10:37:30;;;;;;;12.07;3.00;;;;;;;;;;5000579;28;20440;-72
2022/03/17 10:39:56;;;;;;;12.73;2.60;;;;;;;;;;4995797;28;20863;-72
2022/03/17 10:42:26;;;;;;;19.10;3.10;;;;;;;;;;5004950;28;21586;-71
2022/03/17 10:44:59;;;;;;;14.67;3.30;;;;;;;;;;4996659;28;20464;-72
2022/03/17 10:47:33;;;;;;;9.60;2.80;;;;;;;;;;4997866;28;21081;-72
2022/03/17 10:50:01;;;;;;;11.93;2.80;;;;;;;;;;4995726;28;20493;-71
2022/03/17 10:52:45;;;;;;;15.93;3.03;;;;;;;;;;4999496;28;20979;-72
2022/03/17 10:55:11;;;;;;;8.40;2.10;;;;;;;;;;4986215;28;20444;-72
2022/03/17 10:57:36;;;;;;;14.57;2.97;;;;;;;;;;5003272;28;20419;-72
2022/03/17 11:00:03;;;;;;;9.17;2.43;;;;;;;;;;5001339;28;20196;-72
2022/03/17 11:02:31;;;;;;;11.87;2.23;;;;;;;;;;5002813;28;20236;-72
2022/03/17 11:05:00;;;;;;;13.07;2.97;;;;;;;;;;4998243;28;21017;-72
2022/03/17 11:07:25;;;;;;;14.47;2.30;;;;;;;;;;5003483;28;20428;-72
2022/03/17 11:09:51;;;;;;;10.77;2.50;;;;;;;;;;5002211;28;20470;-72
2022/03/17 11:12:17;;;;;;;17.37;3.00;;;;;;;;;;4996093;28;20186;-72
2022/03/17 11:14:42;;;;;;;12.93;2.90;;;;;;;;;;4994399;28;20626;-73
2022/03/17 11:17:09;;;;;;;12.70;3.13;;;;;;;;;;4987179;28;20443;-73
2022/03/17 11:19:35;;;;;;;11.13;2.13;;;;;;;;;;4993338;28;20204;-73
2022/03/17 11:22:04;;;;;;;12.70;2.43;;;;;;;;;;4997162;28;20431;-73
2022/03/17 11:24:30;;;;;;;16.13;3.57;;;;;;;;;;4996695;28;20460;-73
2022/03/17 11:27:05;;;;;;;8.77;2.33;;;;;;;;;;5002432;28;20472;-73
2022/03/17 11:29:37;;;;;;;15.17;2.60;;;;;;;;;;4996338;28;20216;-73
2022/03/17 11:32:03;;;;;;;21.50;3.30;;;;;;;;;;5001421;28;20424;-73
2022/03/17 11:34:35;;;;;;;13.80;2.90;;;;;;;;;;5007829;28;20431;-73
2022/03/17 11:37:14;;;;;;;12.70;2.80;;;;;;;;;;5001389;28;20431;-72
2022/03/17 11:39:49;;;;;;;13.73;2.77;;;;;;;;;;5000463;28;21398;-72
2022/03/17 11:42:34;;;;;;;10.60;2.40;;;;;;;;;;5004168;28;20438;-73
2022/03/17 11:45:10;;;;;;;10.43;2.40;;;;;;;;;;4994571;28;20513;-73
2022/03/17 11:47:39;;;;;;;16.20;3.23;;;;;;;;;;5000007;28;20426;-72
2022/03/17 11:50:23;;;;;;;13.93;3.63;;;;;;;;;;4997709;28;20550;-73
2022/03/17 11:52:58;;;;;;;17.07;2.70;;;;;;;;;;4998367;28;20468;-73
2022/03/17 11:55:30;;;;;;;13.33;2.73;;;;;;;;;;5022463;28;20502;-73
2022/03/17 11:58:15;;;;;;;10.87;3.00;;;;;;;;;;5000320;28;20443;-73
2022/03/17 12:00:48;;;;;;;13.23;2.97;;;;;;;;;;4998072;28;20476;-73
2022/03/17 12:03:13;;;;;;;22.87;3.40;;;;;;;;;;5003915;28;20481;-73
2022/03/17 12:05:40;;;;;;;10.50;2.73;;;;;;;;;;5008962;28;20507;-73
2022/03/17 12:08:05;;;;;;;11.93;2.57;;;;;;;;;;5006308;28;20736;-73
2022/03/17 12:10:49;;;;;;;14.53;2.57;;;;;;;;;;4998096;28;20452;-73
2022/03/17 12:13:21;;;;;;;14.10;2.53;;;;;;;;;;5003147;28;20185;-73
2022/03/17 12:15:54;;;;;;;20.20;3.30;;;;;;;;;;5001580;28;20466;-73
2022/03/17 12:18:20;;;;;;;12.63;2.93;;;;;;;;;;4998485;28;20575;-73
2022/03/17 12:20:46;;;;;;;17.13;3.07;;;;;;;;;;4998266;28;21109;-73
2022/03/17 12:23:30;;;;;;;9.27;2.83;;;;;;;;;;4994273;28;20215;-73
2022/03/17 12:26:05;;;;;;;15.47;3.37;;;;;;;;;;4996880;28;20440;-73
2022/03/17 12:28:30;;;;;;;7.93;2.43;;;;;;;;;;5001701;28;20517;-72
2022/03/17 12:30:57;;;;;;;13.47;3.20;;;;;;;;;;4997420;28;20463;-71
2022/03/17 12:33:22;;;;;;;21.27;3.13;;;;;;;;;;5003280;28;20189;-72
2022/03/17 12:36:02;;;;;;;17.00;3.10;;;;;;;;;;5001611;28;21010;-71
2022/03/17 12:38:27;;;;;;;21.73;3.37;;;;;;;;;;4998223;28;20173;-72
2022/03/17 12:40:53;;;;;;;12.77;2.40;;;;;;;;;;4990313;28;20823;-71
2022/03/17 12:43:19;;;;;;;12.90;2.60;;;;;;;;;;4998280;28;20201;-72
2022/03/17 12:45:47;;;;;;;14.87;2.90;;;;;;;;;;5000367;28;20971;-71
2022/03/17 12:48:12;;;;;;;12.37;3.07;;;;;;;;;;4998556;28;20864;-72
2022/03/17 12:50:37;;;;;;;18.10;2.90;;;;;;;;;;4994270;28;21410;-72
2022/03/17 12:53:03;;;;;;;11.83;2.30;;;;;;;;;;4997881;28;20578;-72
2022/03/17 12:55:29;;;;;;;18.03;3.00;;;;;;;;;;5003479;28;20649;-71
2022/03/17 12:57:57;;;;;;;11.93;3.00;;;;;;;;;;5015179;28;20268;-72
2022/03/17 13:00:23;;;;;;;9.27;2.50;;;;;;;;;;4998230;28;21070;-71
2022/03/17 13:02:54;;;;;;;23.13;3.10;;;;;;;;;;4996889;28;20535;-72
2022/03/17 13:08:05;;;;;;;15.03;3.30;;;;;;;;;;4998020;28;20415;-72
2022/03/17 13:14:20;;;;;;;12.97;2.93;;;;;;;;;;4998380;28;20444;-73
2022/03/17 13:15:59;;;;;;;13.03;2.73;;;;;;;;;;4995469;28;20495;-72
2022/03/17 13:18:25;;;;;;;12.97;2.60;;;;;;;;;;4998970;28;20915;-72
2022/03/17 13:20:59;;;;;;;8.60;2.60;;;;;;;;;;4998342;28;20280;-72
2022/03/17 13:23:33;;;;;;;14.77;3.30;;;;;;;;;;4994161;28;20193;-72
2022/03/17 13:25:59;;;;;;;12.40;2.73;;;;;;;;;;5013869;28;20427;-72
2022/03/17 13:28:24;;;;;;;12.10;2.40;;;;;;;;;;4989238;28;20435;-72
2022/03/17 13:30:52;;;;;;;10.13;2.37;;;;;;;;;;5008355;22;20482;-68
2022/03/17 13:33:25;;;;;;;9.90;2.60;;;;;;;;;;4997120;28;20324;-69
2022/03/17 13:35:50;;;;;;;9.23;2.53;;;;;;;;;;4983620;28;20424;-69
2022/03/17 13:38:19;;;;;;;19.10;2.77;;;;;;;;;;4988050;28;20956;-69
2022/03/17 13:40:48;;;;;;;12.67;2.80;;;;;;;;;;4989820;28;20244;-68
2022/03/17 13:43:17;;;;;;;7.40;2.00;;;;;;;;;;4988702;28;20468;-68
2022/03/17 13:45:46;;;;;;;15.87;2.80;;;;;;;;;;4990304;28;20435;-68
2022/03/17 13:48:19;;;;;;;12.97;2.60;;;;;;;;;;4983818;28;20719;-68
2022/03/17 13:50:48;;;;;;;13.03;2.73;;;;;;;;;;4992493;28;20465;-68
2022/03/17 13:53:14;;;;;;;15.23;2.63;;;;;;;;;;4990018;28;20966;-68
2022/03/17 13:55:39;;;;;;;12.40;2.93;;;;;;;;;;4992068;28;20482;-68
2022/03/17 13:58:18;;;;;;;7.83;2.40;;;;;;;;;;4993246;28;20878;-68
2022/03/17 14:00:44;;;;;;;12.83;2.43;;;;;;;;;;4991532;28;20185;-68
2022/03/17 14:03:34;;;;;;;17.03;2.20;;;;;;;;;;4988784;28;20459;-68
2022/03/17 14:05:59;;;;;;;13.10;2.80;;;;;;;;;;4992503;28;21180;-68
2022/03/17 14:08:24;;;;;;;18.60;3.03;;;;;;;;;;4988716;28;20420;-68
2022/03/17 14:10:50;;;;;;;11.97;2.97;;;;;;;;;;4994618;28;20650;-68
2022/03/17 14:13:15;;;;;;;14.67;3.37;;;;;;;;;;4990001;28;20220;-68
2022/03/17 14:15:41;;;;;;;11.50;2.30;;;;;;;;;;4993252;28;20440;-68
2022/03/17 14:18:10;;;;;;;10.43;2.30;;;;;;;;;;4989816;28;20178;-68
2022/03/17 14:20:35;;;;;;;12.00;2.67;;;;;;;;;;4992288;28;20238;-68
2022/03/17 14:25:45;;;;;;;17.87;2.77;;;;;;;;;;4993680;28;20676;-68
2022/03/17 14:28:10;;;;;;;10.57;2.00;;;;;;;;;;4995338;28;20433;-68
2022/03/17 14:30:36;;;;;;;10.50;2.83;;;;;;;;;;4994742;28;20239;-68
2022/03/17 14:33:02;;;;;;;12.40;2.60;;;;;;;;;;4988828;28;20201;-68
2022/03/17 14:35:27;;;;;;;8.30;2.03;;;;;;;;;;4992336;28;20463;-68
2022/03/17 14:37:52;;;;;;;10.03;2.20;;;;;;;;;;4993357;28;20220;-68
2022/03/17 14:40:18;;;;;;;11.30;2.33;;;;;;;;;;4995438;28;20184;-68
2022/03/17 14:42:44;;;;;;;9.13;2.20;;;;;;;;;;4992772;28;20299;-68
2022/03/17 14:45:09;;;;;;;11.37;2.40;;;;;;;;;;4991982;28;20218;-68